Oak Grove, Georgia
Current Conditions -  °F | °C
As of 7:49 AM on Saturday 25 Oct 2014 (Local Time) from KRYY Reporting Station
Clear Clear  
Wind Chill: 45°   Ceiling: Unl
Heat Index: 45°   Visibility: 10mi
Dew Point: 39°   Wind: 3mph
Humidity: 81%   Direction: 270°W
Pressure: 30.09"   Gusts: NA
Location:  34.0445°N, 84.7171°W
Report Text: KRYY 251149Z 27003KT 10SM SKC 07/04 A3009
Loading
Personal Weather Stations






























Interactive Weather Map
Tropical Storm Tracking
New forecast layout! Learn more

10-Day Weather Forecast

Advertisements
Track Severe Weather on mobile